sensor_id;sensor_type;location;lat;lon;timestamp;pressure;altitude;pressure_sealevel;temperature;humidity
7524;BME280;3803;51.666;7.630;2022-11-14T00:00:11;101071.44;;;3.56;69.63
7524;BME280;3803;51.666;7.630;2022-11-14T00:00:51;101068.75;;;3.55;69.92
7524;BME280;3803;51.666;7.630;2022-11-14T00:01:30;101086.22;;;3.59;69.55
7524;BME280;3803;51.666;7.630;2022-11-14T00:02:10;101069.28;;;3.49;70.11
7524;BME280;3803;51.666;7.630;2022-11-14T00:02:49;101063.94;;;3.46;69.79
7524;BME280;3803;51.666;7.630;2022-11-14T00:03:28;101063.25;;;3.49;69.80
7524;BME280;3803;51.666;7.630;2022-11-14T00:04:08;101061.75;;;3.52;69.97
7524;BME280;3803;51.666;7.630;2022-11-14T00:04:47;101058.06;;;3.49;69.71
7524;BME280;3803;51.666;7.630;2022-11-14T00:05:26;101067.69;;;3.51;69.73
7524;BME280;3803;51.666;7.630;2022-11-14T00:06:07;101068.84;;;3.56;70.02
7524;BME280;3803;51.666;7.630;2022-11-14T00:06:46;101056.38;;;3.49;69.90
7524;BME280;3803;51.666;7.630;2022-11-14T00:07:29;101060.56;;;3.47;69.63
7524;BME280;3803;51.666;7.630;2022-11-14T00:08:21;101074.66;;;3.52;70.12
7524;BME280;3803;51.666;7.630;2022-11-14T00:09:01;101067.31;;;3.45;70.10
7524;BME280;3803;51.666;7.630;2022-11-14T00:09:40;101066.41;;;3.45;70.21
7524;BME280;3803;51.666;7.630;2022-11-14T00:10:21;101070.88;;;3.47;69.95
7524;BME280;3803;51.666;7.630;2022-11-14T00:11:00;101055.00;;;3.41;70.25
7524;BME280;3803;51.666;7.630;2022-11-14T00:11:40;101068.00;;;3.42;69.75
7524;BME280;3803;51.666;7.630;2022-11-14T00:12:19;101065.31;;;3.41;70.15
7524;BME280;3803;51.666;7.630;2022-11-14T00:12:58;101068.00;;;3.42;69.97
7524;BME280;3803;51.666;7.630;2022-11-14T00:13:37;101068.81;;;3.41;69.64
7524;BME280;3803;51.666;7.630;2022-11-14T00:14:16;101076.94;;;3.48;69.84
7524;BME280;3803;51.666;7.630;2022-11-14T00:14:55;101062.56;;;3.38;70.07
7524;BME280;3803;51.666;7.630;2022-11-14T00:15:34;101060.59;;;3.34;70.09
7524;BME280;3803;51.666;7.630;2022-11-14T00:16:13;101059.00;;;3.36;70.03
7524;BME280;3803;51.666;7.630;2022-11-14T00:16:52;101071.28;;;3.40;70.08
7524;BME280;3803;51.666;7.630;2022-11-14T00:17:31;101063.16;;;3.34;69.94
7524;BME280;3803;51.666;7.630;2022-11-14T00:18:10;101072.69;;;3.35;69.97
7524;BME280;3803;51.666;7.630;2022-11-14T00:18:49;101062.06;;;3.30;70.12
7524;BME280;3803;51.666;7.630;2022-11-14T00:19:29;101063.78;;;3.30;70.07
7524;BME280;3803;51.666;7.630;2022-11-14T00:20:10;101067.53;;;3.35;70.45
7524;BME280;3803;51.666;7.630;2022-11-14T00:20:51;101056.63;;;3.25;69.91
7524;BME280;3803;51.666;7.630;2022-11-14T00:21:36;101060.13;;;3.26;70.15
7524;BME280;3803;51.666;7.630;2022-11-14T00:22:16;101051.41;;;3.24;69.98
7524;BME280;3803;51.666;7.630;2022-11-14T00:22:54;101059.22;;;3.25;69.95
7524;BME280;3803;51.666;7.630;2022-11-14T00:23:34;101048.03;;;3.25;70.15
7524;BME280;3803;51.666;7.630;2022-11-14T00:24:13;101056.63;;;3.25;70.14
7524;BME280;3803;51.666;7.630;2022-11-14T00:24:52;101055.56;;;3.22;70.03
7524;BME280;3803;51.666;7.630;2022-11-14T00:25:31;101050.22;;;3.19;70.24
7524;BME280;3803;51.666;7.630;2022-11-14T00:26:10;101059.84;;;3.21;70.32
7524;BME280;3803;51.666;7.630;2022-11-14T00:26:49;101062.41;;;3.21;70.10
7524;BME280;3803;51.666;7.630;2022-11-14T00:27:28;101040.19;;;3.10;70.22
7524;BME280;3803;51.666;7.630;2022-11-14T00:28:07;101058.25;;;3.23;70.10
7524;BME280;3803;51.666;7.630;2022-11-14T00:28:46;101043.00;;;3.13;70.32
7524;BME280;3803;51.666;7.630;2022-11-14T00:29:25;101044.94;;;3.17;70.53
7524;BME280;3803;51.666;7.630;2022-11-14T00:30:05;101047.53;;;3.17;70.53
7524;BME280;3803;51.666;7.630;2022-11-14T00:30:47;101050.91;;;3.16;70.25
7524;BME280;3803;51.666;7.630;2022-11-14T00:31:26;101058.81;;;3.19;70.45
7524;BME280;3803;51.666;7.630;2022-11-14T00:32:06;101044.66;;;3.12;70.15
7524;BME280;3803;51.666;7.630;2022-11-14T00:32:45;101043.88;;;3.13;69.91
7524;BME280;3803;51.666;7.630;2022-11-14T00:33:24;101059.84;;;3.21;70.28
7524;BME280;3803;51.666;7.630;2022-11-14T00:34:04;101046.72;;;3.18;70.39
7524;BME280;3803;51.666;7.630;2022-11-14T00:34:43;101051.88;;;3.18;70.08
7524;BME280;3803;51.666;7.630;2022-11-14T00:35:22;101044.94;;;3.17;70.04
7524;BME280;3803;51.666;7.630;2022-11-14T00:36:01;101053.66;;;3.19;70.31
7524;BME280;3803;51.666;7.630;2022-11-14T00:36:41;101040.41;;;3.13;69.89
7524;BME280;3803;51.666;7.630;2022-11-14T00:37:20;101053.66;;;3.19;69.82
7524;BME280;3803;51.666;7.630;2022-11-14T00:37:59;101045.56;;;3.13;70.25
7524;BME280;3803;51.666;7.630;2022-11-14T00:38:38;101035.84;;;3.09;70.17
7524;BME280;3803;51.666;7.630;2022-11-14T00:39:17;101051.59;;;3.13;70.27
7524;BME280;3803;51.666;7.630;2022-11-14T00:39:56;101041.00;;;3.09;70.46
7524;BME280;3803;51.666;7.630;2022-11-14T00:40:35;101041.22;;;3.12;70.25
7524;BME280;3803;51.666;7.630;2022-11-14T00:41:14;101054.41;;;3.17;69.97
7524;BME280;3803;51.666;7.630;2022-11-14T00:41:53;101041.97;;;3.11;70.02
7524;BME280;3803;51.666;7.630;2022-11-14T00:42:32;101030.41;;;3.04;69.95
7524;BME280;3803;51.666;7.630;2022-11-14T00:43:12;101045.34;;;3.10;70.10
7524;BME280;3803;51.666;7.630;2022-11-14T00:43:52;101047.13;;;3.11;70.22
7524;BME280;3803;51.666;7.630;2022-11-14T00:44:31;101047.13;;;3.11;70.38
7524;BME280;3803;51.666;7.630;2022-11-14T00:45:10;101031.19;;;3.03;70.10
7524;BME280;3803;51.666;7.630;2022-11-14T00:45:49;101030.28;;;3.03;70.14
7524;BME280;3803;51.666;7.630;2022-11-14T00:46:28;101037.22;;;3.04;69.76
7524;BME280;3803;51.666;7.630;2022-11-14T00:47:07;101044.97;;;3.04;70.25
7524;BME280;3803;51.666;7.630;2022-11-14T00:47:50;101043.28;;;3.04;70.26
7524;BME280;3803;51.666;7.630;2022-11-14T00:48:29;101049.44;;;3.06;70.03
7524;BME280;3803;51.666;7.630;2022-11-14T00:49:09;101036.88;;;2.97;70.10
7524;BME280;3803;51.666;7.630;2022-11-14T00:49:48;101043.91;;;3.00;70.27
7524;BME280;3803;51.666;7.630;2022-11-14T00:50:27;101040.25;;;2.96;70.01
7524;BME280;3803;51.666;7.630;2022-11-14T00:51:06;101039.34;;;2.96;70.55
7524;BME280;3803;51.666;7.630;2022-11-14T00:51:45;101052.69;;;3.04;70.29
7524;BME280;3803;51.666;7.630;2022-11-14T00:52:24;101039.44;;;2.97;70.12
7524;BME280;3803;51.666;7.630;2022-11-14T00:53:03;101037.44;;;2.93;70.19
7524;BME280;3803;51.666;7.630;2022-11-14T00:53:43;101030.34;;;2.89;70.17
7524;BME280;3803;51.666;7.630;2022-11-14T00:54:22;101037.34;;;2.92;70.67
7524;BME280;3803;51.666;7.630;2022-11-14T00:55:01;101032.13;;;2.90;70.25
7524;BME280;3803;51.666;7.630;2022-11-14T00:55:41;101033.91;;;2.91;70.10
7524;BME280;3803;51.666;7.630;2022-11-14T00:56:21;101034.88;;;2.93;70.02
7524;BME280;3803;51.666;7.630;2022-11-14T00:57:00;101031.31;;;2.91;70.49
7524;BME280;3803;51.666;7.630;2022-11-14T00:57:39;101031.91;;;2.87;70.11
7524;BME280;3803;51.666;7.630;2022-11-14T00:58:18;101026.56;;;2.84;70.49
7524;BME280;3803;51.666;7.630;2022-11-14T00:58:57;101035.19;;;2.84;70.21
7524;BME280;3803;51.666;7.630;2022-11-14T00:59:36;101030.91;;;2.85;70.51
7524;BME280;3803;51.666;7.630;2022-11-14T01:00:15;101029.03;;;2.82;70.21
7524;BME280;3803;51.666;7.630;2022-11-14T01:00:55;101027.34;;;2.83;70.02
7524;BME280;3803;51.666;7.630;2022-11-14T01:01:34;101027.16;;;2.80;70.26
7524;BME280;3803;51.666;7.630;2022-11-14T01:02:14;101029.84;;;2.81;70.28
7524;BME280;3803;51.666;7.630;2022-11-14T01:02:53;101022.72;;;2.77;70.63
7524;BME280;3803;51.666;7.630;2022-11-14T01:03:34;101039.34;;;2.82;70.20
7524;BME280;3803;51.666;7.630;2022-11-14T01:04:13;101031.31;;;2.78;70.34
7524;BME280;3803;51.666;7.630;2022-11-14T01:04:52;101022.31;;;2.71;70.02
7524;BME280;3803;51.666;7.630;2022-11-14T01:05:31;101020.63;;;2.71;70.31
7524;BME280;3803;51.666;7.630;2022-11-14T01:06:10;101037.44;;;2.80;70.50
7524;BME280;3803;51.666;7.630;2022-11-14T01:06:49;101017.75;;;2.80;70.48
7524;BME280;3803;51.666;7.630;2022-11-14T01:07:28;101015.56;;;2.73;70.40
7524;BME280;3803;51.666;7.630;2022-11-14T01:08:07;101026.78;;;2.73;70.52
7524;BME280;3803;51.666;7.630;2022-11-14T01:08:49;101025.97;;;2.75;70.58
7524;BME280;3803;51.666;7.630;2022-11-14T01:09:29;101034.88;;;2.80;70.42
7524;BME280;3803;51.666;7.630;2022-11-14T01:10:08;101028.56;;;2.75;70.24
7524;BME280;3803;51.666;7.630;2022-11-14T01:10:49;101032.81;;;2.74;70.15
7524;BME280;3803;51.666;7.630;2022-11-14T01:11:28;101018.75;;;2.69;70.02
7524;BME280;3803;51.666;7.630;2022-11-14T01:12:07;101023.00;;;2.68;70.49
7524;BME280;3803;51.666;7.630;2022-11-14T01:12:46;101022.31;;;2.71;70.52
7524;BME280;3803;51.666;7.630;2022-11-14T01:13:30;101019.44;;;2.66;70.56
7524;BME280;3803;51.666;7.630;2022-11-14T01:14:09;101018.53;;;2.66;70.58
7524;BME280;3803;51.666;7.630;2022-11-14T01:14:48;101010.50;;;2.61;70.18
7524;BME280;3803;51.666;7.630;2022-11-14T01:15:27;101015.66;;;2.61;70.16
7524;BME280;3803;51.666;7.630;2022-11-14T01:16:07;101021.81;;;2.63;70.44
7524;BME280;3803;51.666;7.630;2022-11-14T01:16:46;101017.25;;;2.59;70.43
7524;BME280;3803;51.666;7.630;2022-11-14T01:17:26;101016.00;;;2.52;70.56
7524;BME280;3803;51.666;7.630;2022-11-14T01:18:08;101018.06;;;2.58;70.16
7524;BME280;3803;51.666;7.630;2022-11-14T01:18:48;101007.16;;;2.49;70.49
7524;BME280;3803;51.666;7.630;2022-11-14T01:19:28;101001.00;;;2.46;70.53
7524;BME280;3803;51.666;7.630;2022-11-14T01:20:07;101007.34;;;2.52;70.60
7524;BME280;3803;51.666;7.630;2022-11-14T01:20:47;101003.00;;;2.51;70.13
7524;BME280;3803;51.666;7.630;2022-11-14T01:21:27;101003.00;;;2.51;70.36
7524;BME280;3803;51.666;7.630;2022-11-14T01:22:06;101004.59;;;2.49;70.47
7524;BME280;3803;51.666;7.630;2022-11-14T01:22:46;101001.91;;;2.47;70.19
7524;BME280;3803;51.666;7.630;2022-11-14T01:23:25;101001.78;;;2.45;70.46
7524;BME280;3803;51.666;7.630;2022-11-14T01:24:05;101005.34;;;2.48;70.51
7524;BME280;3803;51.666;7.630;2022-11-14T01:24:44;100997.44;;;2.44;70.60
7524;BME280;3803;51.666;7.630;2022-11-14T01:25:24;100999.03;;;2.42;70.69
7524;BME280;3803;51.666;7.630;2022-11-14T01:26:10;100996.34;;;2.41;70.75
7524;BME280;3803;51.666;7.630;2022-11-14T01:26:49;101005.28;;;2.46;70.45
7524;BME280;3803;51.666;7.630;2022-11-14T01:27:31;100996.25;;;2.39;70.52
7524;BME280;3803;51.666;7.630;2022-11-14T01:28:17;100988.50;;;2.39;70.48
7524;BME280;3803;51.666;7.630;2022-11-14T01:28:56;101000.03;;;2.44;70.58
7524;BME280;3803;51.666;7.630;2022-11-14T01:29:35;100995.66;;;2.43;70.57
7524;BME280;3803;51.666;7.630;2022-11-14T01:30:15;100990.09;;;2.37;70.85
7524;BME280;3803;51.666;7.630;2022-11-14T01:30:54;100979.00;;;2.38;70.19
7524;BME280;3803;51.666;7.630;2022-11-14T01:31:33;100986.94;;;2.41;70.17
7524;BME280;3803;51.666;7.630;2022-11-14T01:32:12;101003.69;;;2.48;70.64
7524;BME280;3803;51.666;7.630;2022-11-14T01:32:51;100988.31;;;2.36;70.22
7524;BME280;3803;51.666;7.630;2022-11-14T01:33:30;100985.84;;;2.38;70.17
7524;BME280;3803;51.666;7.630;2022-11-14T01:34:09;100981.28;;;2.34;70.54
7524;BME280;3803;51.666;7.630;2022-11-14T01:34:48;100991.88;;;2.38;70.36
7524;BME280;3803;51.666;7.630;2022-11-14T01:35:28;100989.91;;;2.34;70.05
7524;BME280;3803;51.666;7.630;2022-11-14T01:36:10;100996.84;;;2.35;70.39
7524;BME280;3803;51.666;7.630;2022-11-14T01:36:49;100980.81;;;2.26;70.10
7524;BME280;3803;51.666;7.630;2022-11-14T01:37:28;100989.50;;;2.28;70.35
7524;BME280;3803;51.666;7.630;2022-11-14T01:38:11;100981.59;;;2.25;70.25
7524;BME280;3803;51.666;7.630;2022-11-14T01:38:51;100998.22;;;2.30;70.56
7524;BME280;3803;51.666;7.630;2022-11-14T01:39:31;100987.50;;;2.24;70.40
7524;BME280;3803;51.666;7.630;2022-11-14T01:40:11;100972.66;;;2.20;70.87
7524;BME280;3803;51.666;7.630;2022-11-14T01:40:50;100981.91;;;2.29;70.53
7524;BME280;3803;51.666;7.630;2022-11-14T01:41:29;100980.41;;;2.33;70.29
7524;BME280;3803;51.666;7.630;2022-11-14T01:42:08;100975.56;;;2.38;69.95
7524;BME280;3803;51.666;7.630;2022-11-14T01:43:10;100981.28;;;2.47;69.64
7524;BME280;3803;51.666;7.630;2022-11-14T01:43:50;100976.44;;;2.38;69.82
7524;BME280;3803;51.666;7.630;2022-11-14T01:46:01;100963.38;;;2.35;69.92
7524;BME280;3803;51.666;7.630;2022-11-14T01:46:44;100966.63;;;2.32;69.92
7524;BME280;3803;51.666;7.630;2022-11-14T01:47:28;100966.94;;;2.37;69.99
7524;BME280;3803;51.666;7.630;2022-11-14T01:48:21;100954.44;;;2.30;69.66
7524;BME280;3803;51.666;7.630;2022-11-14T01:49:14;100969.22;;;2.46;69.69
7524;BME280;3803;51.666;7.630;2022-11-14T01:49:57;100969.91;;;2.43;69.49
7524;BME280;3803;51.666;7.630;2022-11-14T01:50:37;100954.16;;;2.39;69.81
7524;BME280;3803;51.666;7.630;2022-11-14T01:51:28;100961.97;;;2.40;69.57
7524;BME280;3803;51.666;7.630;2022-11-14T01:52:22;100973.47;;;2.45;69.48
7524;BME280;3803;51.666;7.630;2022-11-14T01:53:01;100957.41;;;2.36;69.59
7524;BME280;3803;51.666;7.630;2022-11-14T01:53:41;100960.69;;;2.34;69.71
7524;BME280;3803;51.666;7.630;2022-11-14T01:54:27;100960.91;;;2.37;69.73
7524;BME280;3803;51.666;7.630;2022-11-14T01:55:09;100947.41;;;2.27;69.75
7524;BME280;3803;51.666;7.630;2022-11-14T01:55:49;100948.41;;;2.29;69.87
7524;BME280;3803;51.666;7.630;2022-11-14T01:56:35;100931.75;;;2.24;69.97
7524;BME280;3803;51.666;7.630;2022-11-14T01:57:20;100933.44;;;2.24;69.37
7524;BME280;3803;51.666;7.630;2022-11-14T01:58:00;100934.44;;;2.26;69.66
7524;BME280;3803;51.666;7.630;2022-11-14T01:58:42;100936.22;;;2.27;69.58
7524;BME280;3803;51.666;7.630;2022-11-14T01:59:26;100936.41;;;2.30;69.60
7524;BME280;3803;51.666;7.630;2022-11-14T02:00:09;100952.38;;;2.38;70.01
7524;BME280;3803;51.666;7.630;2022-11-14T02:00:49;100950.66;;;2.38;69.75
7524;BME280;3803;51.666;7.630;2022-11-14T02:01:31;100933.44;;;2.51;69.35
7524;BME280;3803;51.666;7.630;2022-11-14T02:02:15;100943.97;;;2.82;68.92
7524;BME280;3803;51.666;7.630;2022-11-14T02:02:56;100938.50;;;2.91;68.31
7524;BME280;3803;51.666;7.630;2022-11-14T02:03:38;100946.00;;;3.01;67.51
7524;BME280;3803;51.666;7.630;2022-11-14T02:04:27;100940.03;;;3.03;66.84
7524;BME280;3803;51.666;7.630;2022-11-14T02:05:11;100927.94;;;3.01;66.83
7524;BME280;3803;51.666;7.630;2022-11-14T02:05:53;100954.28;;;3.11;66.58
7524;BME280;3803;51.666;7.630;2022-11-14T02:06:33;100948.00;;;3.06;66.74
7524;BME280;3803;51.666;7.630;2022-11-14T02:07:14;100953.31;;;3.09;66.38
7524;BME280;3803;51.666;7.630;2022-11-14T02:07:53;100956.00;;;3.10;66.46
7524;BME280;3803;51.666;7.630;2022-11-14T02:08:33;100938.19;;;3.00;66.30
7524;BME280;3803;51.666;7.630;2022-11-14T02:09:12;100942.63;;;3.03;66.16
7524;BME280;3803;51.666;7.630;2022-11-14T02:09:51;100949.47;;;3.02;66.08
7524;BME280;3803;51.666;7.630;2022-11-14T02:10:30;100941.75;;;3.02;66.27
7524;BME280;3803;51.666;7.630;2022-11-14T02:11:10;100946.00;;;3.01;65.79
7524;BME280;3803;51.666;7.630;2022-11-14T02:11:51;100940.66;;;2.98;65.95
7524;BME280;3803;51.666;7.630;2022-11-14T02:12:31;100943.03;;;2.95;66.17
7524;BME280;3803;51.666;7.630;2022-11-14T02:13:11;100939.97;;;3.01;65.70
7524;BME280;3803;51.666;7.630;2022-11-14T02:13:50;100957.09;;;3.14;65.80
7524;BME280;3803;51.666;7.630;2022-11-14T02:14:31;100945.00;;;3.13;65.43
7524;BME280;3803;51.666;7.630;2022-11-14T02:15:11;100931.16;;;2.97;65.45
7524;BME280;3803;51.666;7.630;2022-11-14T02:15:51;100955.72;;;3.06;65.79
7524;BME280;3803;51.666;7.630;2022-11-14T02:16:30;100944.91;;;2.98;65.53
7524;BME280;3803;51.666;7.630;2022-11-14T02:17:10;100928.03;;;2.88;65.32
7524;BME280;3803;51.666;7.630;2022-11-14T02:17:49;100941.19;;;2.93;65.57
7524;BME280;3803;51.666;7.630;2022-11-14T02:18:28;100932.44;;;2.91;65.80
7524;BME280;3803;51.666;7.630;2022-11-14T02:19:08;100923.34;;;2.82;65.22
7524;BME280;3803;51.666;7.630;2022-11-14T02:19:49;100934.66;;;2.84;65.70
7524;BME280;3803;51.666;7.630;2022-11-14T02:20:33;100941.25;;;2.94;65.61
7524;BME280;3803;51.666;7.630;2022-11-14T02:21:13;100935.13;;;2.92;65.61
7524;BME280;3803;51.666;7.630;2022-11-14T02:21:52;100935.13;;;2.92;65.42
7524;BME280;3803;51.666;7.630;2022-11-14T02:22:32;100924.44;;;2.86;65.72
7524;BME280;3803;51.666;7.630;2022-11-14T02:23:11;100922.47;;;2.82;65.34
7524;BME280;3803;51.666;7.630;2022-11-14T02:23:50;100934.03;;;2.89;65.89
7524;BME280;3803;51.666;7.630;2022-11-14T02:24:29;100926.16;;;2.72;65.97
7524;BME280;3803;51.666;7.630;2022-11-14T02:25:09;100923.28;;;2.67;66.07
7524;BME280;3803;51.666;7.630;2022-11-14T02:25:51;100937.38;;;2.72;66.12
7524;BME280;3803;51.666;7.630;2022-11-14T02:26:30;100933.59;;;2.81;66.01
7524;BME280;3803;51.666;7.630;2022-11-14T02:27:10;100931.19;;;2.84;65.71
7524;BME280;3803;51.666;7.630;2022-11-14T02:27:50;100931.38;;;2.87;65.56
7524;BME280;3803;51.666;7.630;2022-11-14T02:28:30;100933.47;;;2.93;65.32
7524;BME280;3803;51.666;7.630;2022-11-14T02:29:09;100929.69;;;2.87;65.71
7524;BME280;3803;51.666;7.630;2022-11-14T02:29:48;100932.38;;;2.89;65.32
7524;BME280;3803;51.666;7.630;2022-11-14T02:30:28;100916.81;;;2.87;65.72
7524;BME280;3803;51.666;7.630;2022-11-14T02:31:06;100924.53;;;2.87;65.83
7524;BME280;3803;51.666;7.630;2022-11-14T02:31:46;100926.41;;;2.90;65.49
7524;BME280;3803;51.666;7.630;2022-11-14T02:32:25;100922.88;;;2.88;65.50
7524;BME280;3803;51.666;7.630;2022-11-14T02:33:04;100903.41;;;2.80;65.40
7524;BME280;3803;51.666;7.630;2022-11-14T02:33:43;100903.06;;;2.73;65.61
7524;BME280;3803;51.666;7.630;2022-11-14T02:34:22;100915.53;;;2.81;65.06
7524;BME280;3803;51.666;7.630;2022-11-14T02:35:01;100920.78;;;2.82;65.39
7524;BME280;3803;51.666;7.630;2022-11-14T02:35:40;100906.09;;;2.81;65.48
7524;BME280;3803;51.666;7.630;2022-11-14T02:36:19;100921.97;;;2.87;65.20
7524;BME280;3803;51.666;7.630;2022-11-14T02:36:58;100929.28;;;2.95;65.88
7524;BME280;3803;51.666;7.630;2022-11-14T02:37:38;100906.22;;;2.83;65.88
7524;BME280;3803;51.666;7.630;2022-11-14T02:38:17;100915.91;;;2.87;65.46
7524;BME280;3803;51.666;7.630;2022-11-14T02:38:56;100910.56;;;2.84;65.38
7524;BME280;3803;51.666;7.630;2022-11-14T02:39:35;100916.41;;;2.81;65.40
7524;BME280;3803;51.666;7.630;2022-11-14T02:40:14;100910.28;;;2.79;65.41
7524;BME280;3803;51.666;7.630;2022-11-14T02:40:53;100906.81;;;2.79;64.95
7524;BME280;3803;51.666;7.630;2022-11-14T02:41:32;100911.09;;;2.78;65.26
7524;BME280;3803;51.666;7.630;2022-11-14T02:42:12;100906.09;;;2.81;65.11
7524;BME280;3803;51.666;7.630;2022-11-14T02:42:51;100910.38;;;2.81;65.57
7524;BME280;3803;51.666;7.630;2022-11-14T02:43:30;100910.38;;;2.81;65.28
7524;BME280;3803;51.666;7.630;2022-11-14T02:44:09;100922.47;;;2.82;65.10
7524;BME280;3803;51.666;7.630;2022-11-14T02:44:48;100904.03;;;2.76;64.88
7524;BME280;3803;51.666;7.630;2022-11-14T02:45:27;100909.47;;;2.80;65.41
7524;BME280;3803;51.666;7.630;2022-11-14T02:46:06;100910.97;;;2.77;64.92
7524;BME280;3803;51.666;7.630;2022-11-14T02:46:45;100908.41;;;2.77;65.65
7524;BME280;3803;51.666;7.630;2022-11-14T02:47:24;100909.38;;;2.79;65.28
7524;BME280;3803;51.666;7.630;2022-11-14T02:48:04;100910.28;;;2.79;65.11
7524;BME280;3803;51.666;7.630;2022-11-14T02:48:43;100908.41;;;2.77;65.45
7524;BME280;3803;51.666;7.630;2022-11-14T02:49:22;100908.41;;;2.77;65.73
7524;BME280;3803;51.666;7.630;2022-11-14T02:50:01;100916.41;;;2.81;65.52
7524;BME280;3803;51.666;7.630;2022-11-14T02:50:41;100903.88;;;2.72;65.52
7524;BME280;3803;51.666;7.630;2022-11-14T02:51:20;100910.81;;;2.73;65.19
7524;BME280;3803;51.666;7.630;2022-11-14T02:51:59;100896.84;;;2.70;65.27
7524;BME280;3803;51.666;7.630;2022-11-14T02:52:38;100912.38;;;2.71;65.72
7524;BME280;3803;51.666;7.630;2022-11-14T02:53:17;100895.75;;;2.66;65.81
7524;BME280;3803;51.666;7.630;2022-11-14T02:53:56;100908.91;;;2.71;65.60
7524;BME280;3803;51.666;7.630;2022-11-14T02:54:35;100913.38;;;2.73;65.24
7524;BME280;3803;51.666;7.630;2022-11-14T02:55:14;100901.19;;;2.71;65.44
7524;BME280;3803;51.666;7.630;2022-11-14T02:55:54;100908.22;;;2.73;65.33
7524;BME280;3803;51.666;7.630;2022-11-14T02:56:33;100903.06;;;2.73;65.73
7524;BME280;3803;51.666;7.630;2022-11-14T02:57:12;100894.16;;;2.68;64.94
7524;BME280;3803;51.666;7.630;2022-11-14T02:57:51;100891.47;;;2.67;64.94
7524;BME280;3803;51.666;7.630;2022-11-14T02:58:30;100917.84;;;2.76;65.36
7524;BME280;3803;51.666;7.630;2022-11-14T02:59:09;100914.19;;;2.72;65.11
7524;BME280;3803;51.666;7.630;2022-11-14T02:59:48;100910.59;;;2.70;65.25
7524;BME280;3803;51.666;7.630;2022-11-14T03:00:27;100902.69;;;2.67;65.20
7524;BME280;3803;51.666;7.630;2022-11-14T03:01:07;100900.91;;;2.66;65.49
7524;BME280;3803;51.666;7.630;2022-11-14T03:01:46;100902.88;;;2.70;64.88
7524;BME280;3803;51.666;7.630;2022-11-14T03:02:25;100903.56;;;2.68;65.23
7524;BME280;3803;51.666;7.630;2022-11-14T03:03:04;100904.63;;;2.71;65.31
7524;BME280;3803;51.666;7.630;2022-11-14T03:03:43;100899.31;;;2.68;65.21
7524;BME280;3803;51.666;7.630;2022-11-14T03:04:22;100893.19;;;2.66;64.72
7524;BME280;3803;51.666;7.630;2022-11-14T03:05:01;100902.50;;;2.64;64.84
7524;BME280;3803;51.666;7.630;2022-11-14T03:05:40;100901.50;;;2.62;65.16
7524;BME280;3803;51.666;7.630;2022-11-14T03:06:19;100892.09;;;2.63;65.02
7524;BME280;3803;51.666;7.630;2022-11-14T03:06:58;100902.50;;;2.64;65.16
7524;BME280;3803;51.666;7.630;2022-11-14T03:07:37;100892.78;;;2.60;65.29
7524;BME280;3803;51.666;7.630;2022-11-14T03:08:16;100884.78;;;2.55;64.73
7524;BME280;3803;51.666;7.630;2022-11-14T03:08:56;100902.56;;;2.66;64.86
7524;BME280;3803;51.666;7.630;2022-11-14T03:09:35;100892.97;;;2.63;64.89
7524;BME280;3803;51.666;7.630;2022-11-14T03:10:14;100887.72;;;2.62;64.97
7524;BME280;3803;51.666;7.630;2022-11-14T03:10:53;100896.44;;;2.64;64.92
7524;BME280;3803;51.666;7.630;2022-11-14T03:11:32;100881.28;;;2.55;64.93
7524;BME280;3803;51.666;7.630;2022-11-14T03:12:15;100894.78;;;2.64;65.17
7524;BME280;3803;51.666;7.630;2022-11-14T03:12:54;100899.13;;;2.65;65.03
7524;BME280;3803;51.666;7.630;2022-11-14T03:13:34;100894.28;;;2.56;65.34
7524;BME280;3803;51.666;7.630;2022-11-14T03:14:14;100890.91;;;2.57;65.20
7524;BME280;3803;51.666;7.630;2022-11-14T03:14:53;100893.59;;;2.59;65.52
7524;BME280;3803;51.666;7.630;2022-11-14T03:15:36;100892.59;;;2.57;65.04
7524;BME280;3803;51.666;7.630;2022-11-14T03:16:15;100907.03;;;2.68;65.35
7524;BME280;3803;51.666;7.630;2022-11-14T03:16:54;100888.44;;;2.59;65.52
7524;BME280;3803;51.666;7.630;2022-11-14T03:17:34;100889.31;;;2.59;65.28
7524;BME280;3803;51.666;7.630;2022-11-14T03:18:13;100893.97;;;2.65;65.21
7524;BME280;3803;51.666;7.630;2022-11-14T03:18:52;100897.94;;;2.60;65.27
7524;BME280;3803;51.666;7.630;2022-11-14T03:19:31;100888.44;;;2.59;65.38
7524;BME280;3803;51.666;7.630;2022-11-14T03:20:10;100882.38;;;2.58;65.26
7524;BME280;3803;51.666;7.630;2022-11-14T03:20:49;100874.94;;;2.63;65.36
7524;BME280;3803;51.666;7.630;2022-11-14T03:21:28;100882.59;;;2.62;64.82
7524;BME280;3803;51.666;7.630;2022-11-14T03:22:07;100875.25;;;2.54;65.49
7524;BME280;3803;51.666;7.630;2022-11-14T03:22:46;100885.22;;;2.63;65.25
7524;BME280;3803;51.666;7.630;2022-11-14T03:23:25;100876.34;;;2.58;65.02
7524;BME280;3803;51.666;7.630;2022-11-14T03:24:04;100887.72;;;2.62;65.37
7524;BME280;3803;51.666;7.630;2022-11-14T03:24:43;100883.44;;;2.62;64.77
7524;BME280;3803;51.666;7.630;2022-11-14T03:25:23;100888.59;;;2.62;65.19
7524;BME280;3803;51.666;7.630;2022-11-14T03:26:04;100882.38;;;2.58;64.55
7524;BME280;3803;51.666;7.630;2022-11-14T03:26:44;100883.44;;;2.62;64.88
7524;BME280;3803;51.666;7.630;2022-11-14T03:27:23;100881.69;;;2.61;64.89
7524;BME280;3803;51.666;7.630;2022-11-14T03:28:02;100865.66;;;2.52;64.96
7524;BME280;3803;51.666;7.630;2022-11-14T03:28:41;100881.50;;;2.58;64.83
7524;BME280;3803;51.666;7.630;2022-11-14T03:29:21;100868.94;;;2.49;64.87
7524;BME280;3803;51.666;7.630;2022-11-14T03:30:00;100875.97;;;2.52;64.94
7524;BME280;3803;51.666;7.630;2022-11-14T03:30:39;100867.53;;;2.54;64.94
7524;BME280;3803;51.666;7.630;2022-11-14T03:31:18;100866.44;;;2.51;64.91
7524;BME280;3803;51.666;7.630;2022-11-14T03:31:57;100876.13;;;2.55;65.14
7524;BME280;3803;51.666;7.630;2022-11-14T03:32:36;100873.50;;;2.53;64.89
7524;BME280;3803;51.666;7.630;2022-11-14T03:33:15;100880.59;;;2.57;64.71
7524;BME280;3803;51.666;7.630;2022-11-14T03:33:54;100877.03;;;2.55;65.07
7524;BME280;3803;51.666;7.630;2022-11-14T03:34:33;100872.41;;;2.50;64.67
7524;BME280;3803;51.666;7.630;2022-11-14T03:35:12;100871.50;;;2.49;64.65
7524;BME280;3803;51.666;7.630;2022-11-14T03:35:52;100876.88;;;2.52;64.89
7524;BME280;3803;51.666;7.630;2022-11-14T03:36:33;100871.41;;;2.48;64.92
7524;BME280;3803;51.666;7.630;2022-11-14T03:37:12;100873.19;;;2.49;64.55
7524;BME280;3803;51.666;7.630;2022-11-14T03:37:51;100879.50;;;2.54;64.71
7524;BME280;3803;51.666;7.630;2022-11-14T03:38:31;100873.50;;;2.53;64.79
7524;BME280;3803;51.666;7.630;2022-11-14T03:39:10;100873.78;;;2.58;65.09